sensor_id;sensor_type;location;lat;lon;timestamp;pressure;altitude;pressure_sealevel;temperature;humidity
33189;BME280;52601;53.070;10.600;2022-09-09T00:04:10;100575.00;;;14.48;100.00
33189;BME280;52601;53.070;10.600;2022-09-09T00:07:03;100584.41;;;14.39;100.00
33189;BME280;52601;53.070;10.600;2022-09-09T00:10:15;100575.00;;;14.35;100.00
33189;BME280;52601;53.070;10.600;2022-09-09T00:24:22;100586.59;;;14.33;100.00
33189;BME280;52601;53.070;10.600;2022-09-09T00:27:19;100587.50;;;14.32;100.00
33189;BME280;52601;53.070;10.600;2022-09-09T00:33:11;100578.66;;;14.33;100.00
33189;BME280;52601;53.070;10.600;2022-09-09T00:36:00;100585.03;;;14.43;100.00
33189;BME280;52601;53.070;10.600;2022-09-09T00:38:52;100572.38;;;14.48;100.00
33189;BME280;52601;53.070;10.600;2022-09-09T00:44:33;100573.66;;;14.55;100.00
33189;BME280;52601;53.070;10.600;2022-09-09T00:50:17;100575.66;;;14.51;100.00
33189;BME280;52601;53.070;10.600;2022-09-09T00:58:50;100569.72;;;14.48;100.00
33189;BME280;52601;53.070;10.600;2022-09-09T01:01:41;100571.63;;;14.46;100.00
33189;BME280;52601;53.070;10.600;2022-09-09T01:04:29;100567.75;;;14.51;100.00
33189;BME280;52601;53.070;10.600;2022-09-09T01:07:17;100579.88;;;14.54;100.00
33189;BME280;52601;53.070;10.600;2022-09-09T01:10:07;100572.59;;;14.45;100.00
33189;BME280;52601;53.070;10.600;2022-09-09T01:12:58;100568.63;;;14.38;100.00
33189;BME280;52601;53.070;10.600;2022-09-09T01:15:46;100575.06;;;14.34;100.00
33189;BME280;52601;53.070;10.600;2022-09-09T01:18:34;100579.31;;;14.36;100.00
33189;BME280;52601;53.070;10.600;2022-09-09T01:27:02;100572.28;;;14.23;100.00
33189;BME280;52601;53.070;10.600;2022-09-09T01:29:49;100571.91;;;14.15;100.00
33189;BME280;52601;53.070;10.600;2022-09-09T01:32:47;100564.41;;;14.09;100.00
33189;BME280;52601;53.070;10.600;2022-09-09T01:38:24;100565.75;;;14.02;100.00
33189;BME280;52601;53.070;10.600;2022-09-09T01:41:10;100574.88;;;13.96;100.00
33189;BME280;52601;53.070;10.600;2022-09-09T01:43:55;100566.72;;;13.87;100.00
33189;BME280;52601;53.070;10.600;2022-09-09T01:46:41;100567.13;;;13.80;100.00
33189;BME280;52601;53.070;10.600;2022-09-09T01:49:27;100568.84;;;13.81;100.00
33189;BME280;52601;53.070;10.600;2022-09-09T01:52:12;100569.25;;;13.88;100.00
33189;BME280;52601;53.070;10.600;2022-09-09T01:54:57;100567.97;;;13.81;100.00
33189;BME280;52601;53.070;10.600;2022-09-09T01:57:47;100570.59;;;13.81;100.00
33189;BME280;52601;53.070;10.600;2022-09-09T02:00:35;100567.91;;;13.68;100.00
33189;BME280;52601;53.070;10.600;2022-09-09T02:03:29;100579.19;;;13.70;100.00
33189;BME280;52601;53.070;10.600;2022-09-09T02:09:09;100571.28;;;13.70;100.00
33189;BME280;52601;53.070;10.600;2022-09-09T02:12:16;100570.84;;;13.64;100.00
33189;BME280;52601;53.070;10.600;2022-09-09T02:15:05;100573.66;;;13.61;100.00
33189;BME280;52601;53.070;10.600;2022-09-09T02:17:52;100569.13;;;13.63;100.00
33189;BME280;52601;53.070;10.600;2022-09-09T02:20:40;100567.34;;;13.63;100.00
33189;BME280;52601;53.070;10.600;2022-09-09T02:23:26;100571.88;;;13.61;100.00
33189;BME280;52601;53.070;10.600;2022-09-09T02:26:13;100567.16;;;13.66;100.00
33189;BME280;52601;53.070;10.600;2022-09-09T02:29:05;100568.22;;;13.64;100.00
33189;BME280;52601;53.070;10.600;2022-09-09T02:31:53;100561.34;;;13.61;100.00
33189;BME280;52601;53.070;10.600;2022-09-09T02:34:44;100565.97;;;13.58;100.00
33189;BME280;52601;53.070;10.600;2022-09-09T02:37:32;100562.56;;;13.56;100.00
33189;BME280;52601;53.070;10.600;2022-09-09T02:40:20;100569.41;;;13.58;100.00
33189;BME280;52601;53.070;10.600;2022-09-09T02:43:06;100556.56;;;13.54;100.00
33189;BME280;52601;53.070;10.600;2022-09-09T02:45:54;100554.84;;;13.53;100.00
33189;BME280;52601;53.070;10.600;2022-09-09T02:48:55;100556.56;;;13.54;100.00
33189;BME280;52601;53.070;10.600;2022-09-09T02:54:31;100562.00;;;13.51;100.00
33189;BME280;52601;53.070;10.600;2022-09-09T02:57:19;100567.28;;;13.51;100.00
33189;BME280;52601;53.070;10.600;2022-09-09T03:00:06;100576.50;;;13.44;100.00
33189;BME280;52601;53.070;10.600;2022-09-09T03:02:52;100579.31;;;13.41;100.00
33189;BME280;52601;53.070;10.600;2022-09-09T03:05:38;100573.94;;;13.42;100.00
33189;BME280;52601;53.070;10.600;2022-09-09T03:08:23;100567.75;;;13.43;100.00
33189;BME280;52601;53.070;10.600;2022-09-09T03:11:09;100570.66;;;13.39;100.00
33189;BME280;52601;53.070;10.600;2022-09-09T03:13:54;100560.03;;;13.40;100.00
33189;BME280;52601;53.070;10.600;2022-09-09T03:16:41;100557.69;;;13.36;100.00
33189;BME280;52601;53.070;10.600;2022-09-09T03:19:28;100556.38;;;13.29;100.00
33189;BME280;52601;53.070;10.600;2022-09-09T03:22:15;100578.09;;;13.32;100.00
33189;BME280;52601;53.070;10.600;2022-09-09T03:25:00;100573.88;;;13.30;100.00
33189;BME280;52601;53.070;10.600;2022-09-09T03:27:46;100574.25;;;13.24;100.00
33189;BME280;52601;53.070;10.600;2022-09-09T03:30:32;100571.72;;;13.22;100.00
33189;BME280;52601;53.070;10.600;2022-09-09T03:33:17;100572.53;;;13.23;100.00
33189;BME280;52601;53.070;10.600;2022-09-09T03:36:03;100577.00;;;13.22;100.00
33189;BME280;52601;53.070;10.600;2022-09-09T03:38:48;100577.81;;;13.23;100.00
33189;BME280;52601;53.070;10.600;2022-09-09T03:41:33;100576.13;;;13.22;100.00
33189;BME280;52601;53.070;10.600;2022-09-09T03:44:19;100578.28;;;13.15;100.00
33189;BME280;52601;53.070;10.600;2022-09-09T03:47:04;100575.91;;;13.11;100.00
33189;BME280;52601;53.070;10.600;2022-09-09T03:49:51;100580.38;;;13.10;100.00
33189;BME280;52601;53.070;10.600;2022-09-09T03:52:37;100575.84;;;13.12;100.00
33189;BME280;52601;53.070;10.600;2022-09-09T03:55:22;100576.97;;;13.08;100.00
33189;BME280;52601;53.070;10.600;2022-09-09T03:58:07;100581.13;;;13.12;100.00
33189;BME280;52601;53.070;10.600;2022-09-09T04:00:55;100583.16;;;13.07;100.00
33189;BME280;52601;53.070;10.600;2022-09-09T04:03:41;100589.03;;;12.96;100.00
33189;BME280;52601;53.070;10.600;2022-09-09T04:06:27;100586.50;;;12.95;100.00
33189;BME280;52601;53.070;10.600;2022-09-09T04:09:13;100592.16;;;13.03;100.00
33189;BME280;52601;53.070;10.600;2022-09-09T04:11:58;100591.91;;;13.08;100.00
33189;BME280;52601;53.070;10.600;2022-09-09T04:14:43;100593.06;;;13.18;100.00
33189;BME280;52601;53.070;10.600;2022-09-09T04:17:28;100595.59;;;13.19;100.00
33189;BME280;52601;53.070;10.600;2022-09-09T04:20:14;100590.22;;;13.21;100.00
33189;BME280;52601;53.070;10.600;2022-09-09T04:22:59;100584.78;;;13.24;100.00
33189;BME280;52601;53.070;10.600;2022-09-09T04:25:45;100584.69;;;13.25;100.00
33189;BME280;52601;53.070;10.600;2022-09-09T04:28:32;100581.19;;;13.25;100.00
33189;BME280;52601;53.070;10.600;2022-09-09T04:31:19;100589.69;;;13.30;100.00
33189;BME280;52601;53.070;10.600;2022-09-09T04:34:07;100593.44;;;13.26;100.00
33189;BME280;52601;53.070;10.600;2022-09-09T04:36:53;100595.22;;;13.25;100.00
33189;BME280;52601;53.070;10.600;2022-09-09T04:39:38;100592.09;;;13.33;100.00
33189;BME280;52601;53.070;10.600;2022-09-09T04:42:23;100589.94;;;13.25;100.00
33189;BME280;52601;53.070;10.600;2022-09-09T04:45:09;100597.69;;;13.28;100.00
33189;BME280;52601;53.070;10.600;2022-09-09T04:47:56;100595.59;;;13.33;100.00
33189;BME280;52601;53.070;10.600;2022-09-09T04:50:41;100592.69;;;13.38;100.00
33189;BME280;52601;53.070;10.600;2022-09-09T04:53:27;100593.44;;;13.40;100.00
33189;BME280;52601;53.070;10.600;2022-09-09T04:56:15;100595.03;;;13.42;100.00
33189;BME280;52601;53.070;10.600;2022-09-09T04:59:01;100600.13;;;13.45;100.00
33189;BME280;52601;53.070;10.600;2022-09-09T05:01:48;100607.16;;;13.45;100.00
33189;BME280;52601;53.070;10.600;2022-09-09T05:04:34;100605.56;;;13.42;100.00
33189;BME280;52601;53.070;10.600;2022-09-09T05:07:19;100603.66;;;13.44;100.00
33189;BME280;52601;53.070;10.600;2022-09-09T05:10:05;100605.56;;;13.42;100.00
33189;BME280;52601;53.070;10.600;2022-09-09T05:12:54;100602.00;;;13.43;100.00
33189;BME280;52601;53.070;10.600;2022-09-09T05:15:39;100608.94;;;13.44;100.00
33189;BME280;52601;53.070;10.600;2022-09-09T05:18:25;100608.56;;;13.36;100.00
33189;BME280;52601;53.070;10.600;2022-09-09T05:21:11;100592.38;;;13.42;100.00
33189;BME280;52601;53.070;10.600;2022-09-09T05:23:57;100608.66;;;13.49;100.00
33189;BME280;52601;53.070;10.600;2022-09-09T05:26:42;100610.81;;;13.56;100.00
33189;BME280;52601;53.070;10.600;2022-09-09T05:29:29;100605.38;;;13.59;100.00
33189;BME280;52601;53.070;10.600;2022-09-09T05:32:14;100606.50;;;13.69;100.00
33189;BME280;52601;53.070;10.600;2022-09-09T05:35:02;100616.16;;;13.83;100.00
33189;BME280;52601;53.070;10.600;2022-09-09T05:37:47;100617.06;;;13.96;100.00
33189;BME280;52601;53.070;10.600;2022-09-09T05:40:33;100615.66;;;14.05;100.00
33189;BME280;52601;53.070;10.600;2022-09-09T05:43:19;100621.88;;;14.04;100.00
33189;BME280;52601;53.070;10.600;2022-09-09T05:48:51;100627.41;;;14.13;100.00
33189;BME280;52601;53.070;10.600;2022-09-09T05:51:36;100637.56;;;14.19;100.00
33189;BME280;52601;53.070;10.600;2022-09-09T05:54:22;100639.88;;;14.24;100.00
33189;BME280;52601;53.070;10.600;2022-09-09T05:57:08;100642.09;;;14.17;100.00
33189;BME280;52601;53.070;10.600;2022-09-09T05:59:53;100640.47;;;14.29;100.00
33189;BME280;52601;53.070;10.600;2022-09-09T06:02:38;100642.16;;;14.30;100.00
33189;BME280;52601;53.070;10.600;2022-09-09T06:05:24;100638.50;;;14.32;100.00
33189;BME280;52601;53.070;10.600;2022-09-09T06:08:12;100637.00;;;14.28;100.00
33189;BME280;52601;53.070;10.600;2022-09-09T06:11:01;100639.44;;;14.31;100.00
33189;BME280;52601;53.070;10.600;2022-09-09T06:13:48;100641.34;;;14.29;100.00
33189;BME280;52601;53.070;10.600;2022-09-09T06:16:35;100646.00;;;14.38;100.00
33189;BME280;52601;53.070;10.600;2022-09-09T06:19:22;100647.94;;;14.49;100.00
33189;BME280;52601;53.070;10.600;2022-09-09T06:22:11;100654.09;;;14.49;100.00
33189;BME280;52601;53.070;10.600;2022-09-09T06:24:57;100657.06;;;14.57;100.00
33189;BME280;52601;53.070;10.600;2022-09-09T06:27:43;100656.63;;;14.63;100.00
33189;BME280;52601;53.070;10.600;2022-09-09T06:30:28;100659.63;;;14.72;100.00
33189;BME280;52601;53.070;10.600;2022-09-09T06:33:15;100657.72;;;14.74;100.00
33189;BME280;52601;53.070;10.600;2022-09-09T06:36:01;100663.28;;;14.83;100.00
33189;BME280;52601;53.070;10.600;2022-09-09T06:38:46;100663.47;;;14.80;100.00
33189;BME280;52601;53.070;10.600;2022-09-09T06:41:32;100668.16;;;14.89;100.00
33189;BME280;52601;53.070;10.600;2022-09-09T06:44:18;100658.22;;;14.93;100.00
33189;BME280;52601;53.070;10.600;2022-09-09T06:47:03;100663.59;;;15.04;100.00
33189;BME280;52601;53.070;10.600;2022-09-09T06:49:49;100670.72;;;15.16;100.00
33189;BME280;52601;53.070;10.600;2022-09-09T06:52:34;100657.38;;;15.17;100.00
33189;BME280;52601;53.070;10.600;2022-09-09T06:55:20;100667.22;;;15.28;100.00
33189;BME280;52601;53.070;10.600;2022-09-09T06:58:08;100659.53;;;15.37;100.00
33189;BME280;52601;53.070;10.600;2022-09-09T07:01:00;100660.00;;;15.57;100.00
33189;BME280;52601;53.070;10.600;2022-09-09T07:03:47;100668.19;;;15.77;100.00
33189;BME280;52601;53.070;10.600;2022-09-09T07:06:34;100659.28;;;16.03;100.00
33189;BME280;52601;53.070;10.600;2022-09-09T07:09:20;100663.94;;;16.36;100.00
33189;BME280;52601;53.070;10.600;2022-09-09T07:12:05;100659.97;;;16.78;100.00
33189;BME280;52601;53.070;10.600;2022-09-09T07:14:51;100663.44;;;17.13;100.00
33189;BME280;52601;53.070;10.600;2022-09-09T07:17:36;100660.53;;;17.51;100.00
33189;BME280;52601;53.070;10.600;2022-09-09T07:20:21;100659.44;;;18.08;100.00
33189;BME280;52601;53.070;10.600;2022-09-09T07:23:07;100667.00;;;18.46;100.00
33189;BME280;52601;53.070;10.600;2022-09-09T07:25:52;100661.56;;;18.37;100.00
33189;BME280;52601;53.070;10.600;2022-09-09T07:28:38;100665.81;;;18.28;100.00
33189;BME280;52601;53.070;10.600;2022-09-09T07:34:09;100659.25;;;19.38;100.00
33189;BME280;52601;53.070;10.600;2022-09-09T07:36:54;100664.97;;;20.34;100.00
33189;BME280;52601;53.070;10.600;2022-09-09T07:39:39;100671.94;;;21.69;96.49
33189;BME280;52601;53.070;10.600;2022-09-09T07:42:24;100674.09;;;22.29;89.26
33189;BME280;52601;53.070;10.600;2022-09-09T07:45:10;100676.31;;;22.96;82.05
33189;BME280;52601;53.070;10.600;2022-09-09T07:47:55;100668.06;;;22.27;87.12
33189;BME280;52601;53.070;10.600;2022-09-09T07:50:42;100669.78;;;21.26;91.66
33189;BME280;52601;53.070;10.600;2022-09-09T07:53:27;100675.00;;;20.89;93.80
33189;BME280;52601;53.070;10.600;2022-09-09T07:56:14;100679.91;;;21.13;95.93
33189;BME280;52601;53.070;10.600;2022-09-09T07:59:01;100678.72;;;21.54;92.89
33189;BME280;52601;53.070;10.600;2022-09-09T08:01:50;100671.69;;;21.53;94.55
33189;BME280;52601;53.070;10.600;2022-09-09T08:04:39;100682.00;;;20.90;96.14
33189;BME280;52601;53.070;10.600;2022-09-09T08:07:25;100677.44;;;20.33;98.02
33189;BME280;52601;53.070;10.600;2022-09-09T08:10:11;100667.22;;;19.99;100.00
33189;BME280;52601;53.070;10.600;2022-09-09T08:12:56;100681.13;;;20.02;100.00
33189;BME280;52601;53.070;10.600;2022-09-09T08:16:04;100681.00;;;19.73;100.00
33189;BME280;52601;53.070;10.600;2022-09-09T08:18:51;100674.84;;;19.83;100.00
33189;BME280;52601;53.070;10.600;2022-09-09T08:21:37;100675.97;;;19.80;100.00
33189;BME280;52601;53.070;10.600;2022-09-09T08:24:23;100676.81;;;19.81;100.00
33189;BME280;52601;53.070;10.600;2022-09-09T08:27:09;100680.47;;;19.80;100.00
33189;BME280;52601;53.070;10.600;2022-09-09T08:29:55;100675.78;;;20.02;100.00
33189;BME280;52601;53.070;10.600;2022-09-09T08:32:41;100680.97;;;20.43;100.00
33189;BME280;52601;53.070;10.600;2022-09-09T08:35:30;100677.66;;;21.37;97.05
33189;BME280;52601;53.070;10.600;2022-09-09T08:38:17;100679.75;;;22.88;89.38
33189;BME280;52601;53.070;10.600;2022-09-09T08:41:07;100669.84;;;24.43;79.03
33189;BME280;52601;53.070;10.600;2022-09-09T08:44:00;100674.97;;;25.67;74.57
33189;BME280;52601;53.070;10.600;2022-09-09T08:58:33;100680.69;;;27.25;68.57
33189;BME280;52601;53.070;10.600;2022-09-09T09:01:23;100675.84;;;28.31;63.67
33189;BME280;52601;53.070;10.600;2022-09-09T09:04:29;100675.25;;;29.28;58.20
33189;BME280;52601;53.070;10.600;2022-09-09T09:13:15;100673.31;;;28.79;58.70
33189;BME280;52601;53.070;10.600;2022-09-09T09:16:09;100683.22;;;27.93;60.85
33189;BME280;52601;53.070;10.600;2022-09-09T09:18:59;100683.31;;;27.10;62.70
33189;BME280;52601;53.070;10.600;2022-09-09T09:21:48;100676.81;;;26.52;65.23
33189;BME280;52601;53.070;10.600;2022-09-09T09:24:41;100672.41;;;28.93;59.99
33189;BME280;52601;53.070;10.600;2022-09-09T09:27:40;100674.78;;;28.61;58.57
33189;BME280;52601;53.070;10.600;2022-09-09T09:30:29;100676.84;;;28.80;59.40
33189;BME280;52601;53.070;10.600;2022-09-09T09:36:12;100672.31;;;28.30;59.55
33189;BME280;52601;53.070;10.600;2022-09-09T09:39:00;100670.47;;;28.52;59.67
33189;BME280;52601;53.070;10.600;2022-09-09T09:42:10;100665.69;;;28.47;59.20
33189;BME280;52601;53.070;10.600;2022-09-09T09:45:14;100672.03;;;27.67;60.92
33189;BME280;52601;53.070;10.600;2022-09-09T09:48:05;100666.13;;;28.15;59.42
33189;BME280;52601;53.070;10.600;2022-09-09T09:51:08;100661.97;;;28.34;61.47
33189;BME280;52601;53.070;10.600;2022-09-09T09:54:03;100667.78;;;29.57;58.70
33189;BME280;52601;53.070;10.600;2022-09-09T09:56:51;100664.28;;;31.31;56.71
33189;BME280;52601;53.070;10.600;2022-09-09T09:59:37;100658.56;;;32.87;48.02
33189;BME280;52601;53.070;10.600;2022-09-09T10:02:25;100661.22;;;33.25;46.93
33189;BME280;52601;53.070;10.600;2022-09-09T10:05:13;100656.91;;;32.79;46.29
33189;BME280;52601;53.070;10.600;2022-09-09T10:08:08;100655.09;;;30.26;52.00
33189;BME280;52601;53.070;10.600;2022-09-09T10:14:19;100658.03;;;28.86;55.89
33189;BME280;52601;53.070;10.600;2022-09-09T10:17:09;100655.94;;;31.07;51.36
33189;BME280;52601;53.070;10.600;2022-09-09T10:20:04;100657.00;;;33.04;47.47
33189;BME280;52601;53.070;10.600;2022-09-09T10:23:08;100646.91;;;33.78;44.68
33189;BME280;52601;53.070;10.600;2022-09-09T10:29:09;100651.72;;;33.95;43.76
33189;BME280;52601;53.070;10.600;2022-09-09T10:32:05;100650.16;;;32.13;47.61
33189;BME280;52601;53.070;10.600;2022-09-09T10:34:56;100656.41;;;29.13;51.96
33189;BME280;52601;53.070;10.600;2022-09-09T10:40:32;100651.69;;;29.43;56.84
33189;BME280;52601;53.070;10.600;2022-09-09T10:46:23;100629.72;;;32.10;48.30
33189;BME280;52601;53.070;10.600;2022-09-09T10:49:17;100636.44;;;30.51;50.95
33189;BME280;52601;53.070;10.600;2022-09-09T10:52:22;100643.13;;;28.69;53.16
33189;BME280;52601;53.070;10.600;2022-09-09T10:55:10;100632.06;;;27.41;56.85
33189;BME280;52601;53.070;10.600;2022-09-09T10:57:58;100624.38;;;28.68;57.18
33189;BME280;52601;53.070;10.600;2022-09-09T11:00:46;100631.25;;;31.80;48.75
33189;BME280;52601;53.070;10.600;2022-09-09T11:03:32;100628.88;;;32.85;46.59
33189;BME280;52601;53.070;10.600;2022-09-09T11:06:19;100631.41;;;34.15;42.40
33189;BME280;52601;53.070;10.600;2022-09-09T11:09:08;100627.19;;;32.91;44.61
33189;BME280;52601;53.070;10.600;2022-09-09T11:11:57;100629.78;;;29.38;49.40
33189;BME280;52601;53.070;10.600;2022-09-09T11:14:43;100631.16;;;29.83;51.60
33189;BME280;52601;53.070;10.600;2022-09-09T11:17:35;100624.53;;;33.09;43.77
33189;BME280;52601;53.070;10.600;2022-09-09T11:20:25;100627.72;;;32.31;44.52
33189;BME280;52601;53.070;10.600;2022-09-09T11:23:15;100617.66;;;32.38;46.18
33189;BME280;52601;53.070;10.600;2022-09-09T11:26:02;100623.75;;;31.76;46.36
33189;BME280;52601;53.070;10.600;2022-09-09T11:29:00;100617.41;;;33.57;44.05
33189;BME280;52601;53.070;10.600;2022-09-09T11:37:59;100632.66;;;28.45;53.65
33189;BME280;52601;53.070;10.600;2022-09-09T11:40:47;100636.44;;;27.57;56.10
33189;BME280;52601;53.070;10.600;2022-09-09T11:43:39;100639.47;;;27.02;55.64
33189;BME280;52601;53.070;10.600;2022-09-09T11:46:36;100629.72;;;26.56;58.49
33189;BME280;52601;53.070;10.600;2022-09-09T11:49:30;100631.25;;;25.81;60.55
33189;BME280;52601;53.070;10.600;2022-09-09T11:52:41;100631.22;;;24.77;64.00
33189;BME280;52601;53.070;10.600;2022-09-09T11:55:29;100621.66;;;24.99;63.29
33189;BME280;52601;53.070;10.600;2022-09-09T11:58:17;100623.09;;;25.34;63.68
33189;BME280;52601;53.070;10.600;2022-09-09T12:01:14;100617.44;;;25.05;64.65
33189;BME280;52601;53.070;10.600;2022-09-09T12:07:00;100621.50;;;23.77;68.54
33189;BME280;52601;53.070;10.600;2022-09-09T12:09:48;100619.91;;;23.58;68.00
33189;BME280;52601;53.070;10.600;2022-09-09T12:12:37;100611.56;;;23.36;71.17
33189;BME280;52601;53.070;10.600;2022-09-09T12:15:28;100632.75;;;22.86;71.32
33189;BME280;52601;53.070;10.600;2022-09-09T12:18:14;100636.19;;;22.78;72.58
33189;BME280;52601;53.070;10.600;2022-09-09T12:21:21;100637.09;;;22.69;73.84
33189;BME280;52601;53.070;10.600;2022-09-09T12:24:17;100645.44;;;22.39;75.58
33189;BME280;52601;53.070;10.600;2022-09-09T12:27:07;100649.53;;;22.16;77.42
33189;BME280;52601;53.070;10.600;2022-09-09T12:32:44;100655.47;;;22.10;82.00
33189;BME280;52601;53.070;10.600;2022-09-09T12:35:30;100649.16;;;22.11;78.79
33189;BME280;52601;53.070;10.600;2022-09-09T12:38:18;100649.09;;;22.20;79.30
33189;BME280;52601;53.070;10.600;2022-09-09T12:41:20;100640.81;;;22.14;78.33
33189;BME280;52601;53.070;10.600;2022-09-09T12:44:06;100637.97;;;22.25;80.31
33189;BME280;52601;53.070;10.600;2022-09-09T12:46:53;100637.56;;;22.20;79.88
33189;BME280;52601;53.070;10.600;2022-09-09T12:49:40;100623.31;;;22.29;81.07
33189;BME280;52601;53.070;10.600;2022-09-09T12:52:30;100625.75;;;22.22;80.81
33189;BME280;52601;53.070;10.600;2022-09-09T12:55:18;100624.91;;;21.95;81.72
33189;BME280;52601;53.070;10.600;2022-09-09T12:58:06;100627.19;;;22.17;81.09
33189;BME280;52601;53.070;10.600;2022-09-09T13:00:52;100621.78;;;21.99;82.23
33189;BME280;52601;53.070;10.600;2022-09-09T13:03:44;100622.84;;;21.89;85.51
33189;BME280;52601;53.070;10.600;2022-09-09T13:06:31;100622.00;;;21.88;84.22
33189;BME280;52601;53.070;10.600;2022-09-09T13:09:17;100631.00;;;21.78;82.61
33189;BME280;52601;53.070;10.600;2022-09-09T13:12:03;100635.19;;;21.53;84.37
33189;BME280;52601;53.070;10.600;2022-09-09T13:14:53;100640.06;;;21.67;87.74
33189;BME280;52601;53.070;10.600;2022-09-09T13:17:38;100639.13;;;21.49;87.69
33189;BME280;52601;53.070;10.600;2022-09-09T13:20:25;100650.63;;;21.50;88.70
33189;BME280;52601;53.070;10.600;2022-09-09T13:23:11;100653.81;;;21.07;85.29
33189;BME280;52601;53.070;10.600;2022-09-09T13:28:43;100667.00;;;20.89;85.65
33189;BME280;52601;53.070;10.600;2022-09-09T13:31:32;100659.41;;;20.85;86.79
33189;BME280;52601;53.070;10.600;2022-09-09T13:34:28;100664.16;;;20.62;91.84
33189;BME280;52601;53.070;10.600;2022-09-09T13:37:19;100668.66;;;20.62;91.71
33189;BME280;52601;53.070;10.600;2022-09-09T13:40:13;100667.53;;;20.54;93.04
33189;BME280;52601;53.070;10.600;2022-09-09T13:43:02;100667.81;;;20.71;92.94
33189;BME280;52601;53.070;10.600;2022-09-09T13:45:55;100676.81;;;20.70;93.80
33189;BME280;52601;53.070;10.600;2022-09-09T13:48:41;100672.75;;;20.75;94.62
33189;BME280;52601;53.070;10.600;2022-09-09T13:51:37;100675.00;;;20.89;94.23
33189;BME280;52601;53.070;10.600;2022-09-09T13:54:22;100675.28;;;20.96;96.31
33189;BME280;52601;53.070;10.600;2022-09-09T13:57:15;100672.47;;;20.97;100.00
33189;BME280;52601;53.070;10.600;2022-09-09T14:00:00;100659.97;;;20.88;100.00
33189;BME280;52601;53.070;10.600;2022-09-09T14:02:50;100652.94;;;21.35;100.00
33189;BME280;52601;53.070;10.600;2022-09-09T14:05:35;100652.34;;;21.41;99.93
33189;BME280;52601;53.070;10.600;2022-09-09T14:08:24;100647.66;;;21.62;98.61
33189;BME280;52601;53.070;10.600;2022-09-09T14:11:11;100655.03;;;21.78;94.14
33189;BME280;52601;53.070;10.600;2022-09-09T14:13:57;100648.50;;;21.63;97.23
33189;BME280;52601;53.070;10.600;2022-09-09T14:16:42;100649.94;;;21.94;95.87
33189;BME280;52601;53.070;10.600;2022-09-09T14:19:27;100640.47;;;21.99;93.25
33189;BME280;52601;53.070;10.600;2022-09-09T14:22:13;100640.63;;;21.98;94.74
33189;BME280;52601;53.070;10.600;2022-09-09T14:24:58;100646.69;;;22.27;96.74
33189;BME280;52601;53.070;10.600;2022-09-09T14:27:43;100652.91;;;22.98;96.63
33189;BME280;52601;53.070;10.600;2022-09-09T14:30:30;100649.13;;;23.26;94.31
33189;BME280;52601;53.070;10.600;2022-09-09T14:33:16;100651.75;;;24.53;84.33
33189;BME280;52601;53.070;10.600;2022-09-09T14:36:02;100642.56;;;25.36;79.97
33189;BME280;52601;53.070;10.600;2022-09-09T14:38:48;100635.34;;;25.99;71.33
33189;BME280;52601;53.070;10.600;2022-09-09T14:41:33;100637.44;;;26.28;71.40
33189;BME280;52601;53.070;10.600;2022-09-09T14:44:19;100629.91;;;26.99;66.22
33189;BME280;52601;53.070;10.600;2022-09-09T14:47:05;100635.13;;;27.38;65.10
33189;BME280;52601;53.070;10.600;2022-09-09T14:49:50;100644.88;;;26.79;64.26
33189;BME280;52601;53.070;10.600;2022-09-09T14:52:35;100650.25;;;26.79;62.95
33189;BME280;52601;53.070;10.600;2022-09-09T14:55:21;100644.59;;;26.66;67.09
33189;BME280;52601;53.070;10.600;2022-09-09T14:58:07;100646.47;;;26.35;66.80
33189;BME280;52601;53.070;10.600;2022-09-09T15:00:52;100640.53;;;26.48;66.41
33189;BME280;52601;53.070;10.600;2022-09-09T15:03:38;100645.47;;;25.89;69.25
33189;BME280;52601;53.070;10.600;2022-09-09T15:06:24;100643.91;;;25.56;70.46
33189;BME280;52601;53.070;10.600;2022-09-09T15:09:10;100641.91;;;26.13;65.71
33189;BME280;52601;53.070;10.600;2022-09-09T15:11:56;100641.00;;;27.19;63.39
33189;BME280;52601;53.070;10.600;2022-09-09T15:14:41;100635.84;;;26.41;67.23
33189;BME280;52601;53.070;10.600;2022-09-09T15:17:27;100626.75;;;27.33;65.40
33189;BME280;52601;53.070;10.600;2022-09-09T15:20:13;100638.63;;;26.79;66.28
33189;BME280;52601;53.070;10.600;2022-09-09T15:22:58;100636.72;;;25.48;70.42
33189;BME280;52601;53.070;10.600;2022-09-09T15:25:50;100639.59;;;24.91;71.49
33189;BME280;52601;53.070;10.600;2022-09-09T15:28:36;100630.38;;;24.11;75.58
33189;BME280;52601;53.070;10.600;2022-09-09T15:31:23;100642.59;;;24.71;70.25
33189;BME280;52601;53.070;10.600;2022-09-09T15:34:08;100639.47;;;23.92;76.13
33189;BME280;52601;53.070;10.600;2022-09-09T15:36:54;100637.81;;;23.58;76.57
33189;BME280;52601;53.070;10.600;2022-09-09T15:39:40;100646.19;;;23.37;77.23
33189;BME280;52601;53.070;10.600;2022-09-09T15:42:26;100635.75;;;24.19;78.73
33189;BME280;52601;53.070;10.600;2022-09-09T15:45:11;100630.53;;;24.10;75.64
33189;BME280;52601;53.070;10.600;2022-09-09T15:47:57;100639.59;;;23.49;75.43
33189;BME280;52601;53.070;10.600;2022-09-09T15:50:42;100641.16;;;22.73;75.49
33189;BME280;52601;53.070;10.600;2022-09-09T15:53:27;100647.28;;;22.21;80.16
33189;BME280;52601;53.070;10.600;2022-09-09T15:56:13;100638.28;;;21.95;80.30
33189;BME280;52601;53.070;10.600;2022-09-09T15:58:59;100633.41;;;21.81;81.63